sensor_id;sensor_type;location;lat;lon;timestamp;P1;durP1;ratioP1;P2;durP2;ratioP2
7729;SDS011;3908;52.310;7.230;2022-08-20T00:01:31;10.60;;;8.02;;
7729;SDS011;3908;52.310;7.230;2022-08-20T00:04:18;15.10;;;9.10;;
7729;SDS011;3908;52.310;7.230;2022-08-20T00:07:05;13.23;;;9.15;;
7729;SDS011;3908;52.310;7.230;2022-08-20T00:09:54;12.68;;;9.38;;
7729;SDS011;3908;52.310;7.230;2022-08-20T00:12:42;12.90;;;8.82;;
7729;SDS011;3908;52.310;7.230;2022-08-20T00:15:31;10.18;;;7.60;;
7729;SDS011;3908;52.310;7.230;2022-08-20T00:18:20;8.68;;;6.70;;
7729;SDS011;3908;52.310;7.230;2022-08-20T00:21:09;10.60;;;7.93;;
7729;SDS011;3908;52.310;7.230;2022-08-20T00:23:58;11.02;;;7.90;;
7729;SDS011;3908;52.310;7.230;2022-08-20T00:26:47;9.40;;;7.18;;
7729;SDS011;3908;52.310;7.230;2022-08-20T00:29:34;10.18;;;7.68;;
7729;SDS011;3908;52.310;7.230;2022-08-20T00:32:21;8.15;;;6.93;;
7729;SDS011;3908;52.310;7.230;2022-08-20T00:35:09;9.05;;;6.22;;
7729;SDS011;3908;52.310;7.230;2022-08-20T00:37:56;8.07;;;6.45;;
7729;SDS011;3908;52.310;7.230;2022-08-20T00:40:45;7.97;;;5.85;;
7729;SDS011;3908;52.310;7.230;2022-08-20T00:43:38;8.70;;;6.28;;
7729;SDS011;3908;52.310;7.230;2022-08-20T00:46:28;9.63;;;6.85;;
7729;SDS011;3908;52.310;7.230;2022-08-20T00:49:16;12.68;;;7.18;;
7729;SDS011;3908;52.310;7.230;2022-08-20T00:52:08;9.13;;;7.23;;
7729;SDS011;3908;52.310;7.230;2022-08-20T00:55:00;9.27;;;7.20;;
7729;SDS011;3908;52.310;7.230;2022-08-20T00:57:50;9.38;;;7.15;;
7729;SDS011;3908;52.310;7.230;2022-08-20T01:00:44;10.82;;;7.72;;
7729;SDS011;3908;52.310;7.230;2022-08-20T01:03:34;10.65;;;8.20;;
7729;SDS011;3908;52.310;7.230;2022-08-20T01:06:21;14.05;;;8.93;;
7729;SDS011;3908;52.310;7.230;2022-08-20T01:09:09;12.00;;;9.32;;
7729;SDS011;3908;52.310;7.230;2022-08-20T01:11:56;13.68;;;9.23;;
7729;SDS011;3908;52.310;7.230;2022-08-20T01:14:43;12.32;;;9.02;;
7729;SDS011;3908;52.310;7.230;2022-08-20T01:17:33;12.35;;;9.60;;
7729;SDS011;3908;52.310;7.230;2022-08-20T01:20:23;12.02;;;9.75;;
7729;SDS011;3908;52.310;7.230;2022-08-20T01:23:13;14.40;;;9.90;;
7729;SDS011;3908;52.310;7.230;2022-08-20T01:26:21;13.43;;;10.35;;
7729;SDS011;3908;52.310;7.230;2022-08-20T01:29:11;12.70;;;10.00;;
7729;SDS011;3908;52.310;7.230;2022-08-20T01:32:01;13.60;;;10.13;;
7729;SDS011;3908;52.310;7.230;2022-08-20T01:34:49;13.60;;;10.23;;
7729;SDS011;3908;52.310;7.230;2022-08-20T01:37:36;15.00;;;9.97;;
7729;SDS011;3908;52.310;7.230;2022-08-20T01:40:26;12.75;;;9.90;;
7729;SDS011;3908;52.310;7.230;2022-08-20T01:43:27;14.97;;;10.57;;
7729;SDS011;3908;52.310;7.230;2022-08-20T01:46:14;14.65;;;10.73;;
7729;SDS011;3908;52.310;7.230;2022-08-20T01:49:06;13.77;;;10.60;;
7729;SDS011;3908;52.310;7.230;2022-08-20T01:51:56;16.47;;;10.80;;
7729;SDS011;3908;52.310;7.230;2022-08-20T01:54:46;14.97;;;11.13;;
7729;SDS011;3908;52.310;7.230;2022-08-20T01:57:33;15.32;;;11.40;;
7729;SDS011;3908;52.310;7.230;2022-08-20T02:00:22;16.10;;;11.00;;
7729;SDS011;3908;52.310;7.230;2022-08-20T02:03:10;16.30;;;11.48;;
7729;SDS011;3908;52.310;7.230;2022-08-20T02:05:58;12.30;;;8.73;;
7729;SDS011;3908;52.310;7.230;2022-08-20T02:08:46;14.23;;;10.43;;
7729;SDS011;3908;52.310;7.230;2022-08-20T02:11:33;13.20;;;9.95;;
7729;SDS011;3908;52.310;7.230;2022-08-20T02:14:22;12.02;;;9.40;;
7729;SDS011;3908;52.310;7.230;2022-08-20T02:17:11;11.40;;;8.45;;
7729;SDS011;3908;52.310;7.230;2022-08-20T02:20:01;13.23;;;9.75;;
7729;SDS011;3908;52.310;7.230;2022-08-20T02:22:52;12.87;;;10.33;;
7729;SDS011;3908;52.310;7.230;2022-08-20T02:25:40;12.15;;;9.48;;
7729;SDS011;3908;52.310;7.230;2022-08-20T02:28:29;14.45;;;10.30;;
7729;SDS011;3908;52.310;7.230;2022-08-20T02:31:16;13.63;;;9.57;;
7729;SDS011;3908;52.310;7.230;2022-08-20T02:34:06;14.07;;;11.00;;
7729;SDS011;3908;52.310;7.230;2022-08-20T02:36:55;11.40;;;8.20;;
7729;SDS011;3908;52.310;7.230;2022-08-20T02:39:42;11.82;;;8.70;;
7729;SDS011;3908;52.310;7.230;2022-08-20T02:42:29;10.15;;;7.90;;
7729;SDS011;3908;52.310;7.230;2022-08-20T02:45:16;15.18;;;10.70;;
7729;SDS011;3908;52.310;7.230;2022-08-20T02:48:07;11.88;;;8.30;;
7729;SDS011;3908;52.310;7.230;2022-08-20T02:50:57;10.68;;;7.82;;
7729;SDS011;3908;52.310;7.230;2022-08-20T02:53:46;10.30;;;8.13;;
7729;SDS011;3908;52.310;7.230;2022-08-20T02:56:37;10.45;;;7.82;;
7729;SDS011;3908;52.310;7.230;2022-08-20T02:59:25;13.70;;;8.68;;
7729;SDS011;3908;52.310;7.230;2022-08-20T03:02:12;11.57;;;8.50;;
7729;SDS011;3908;52.310;7.230;2022-08-20T03:04:59;14.68;;;10.77;;
7729;SDS011;3908;52.310;7.230;2022-08-20T03:07:50;10.57;;;8.57;;
7729;SDS011;3908;52.310;7.230;2022-08-20T03:10:41;11.90;;;8.73;;
7729;SDS011;3908;52.310;7.230;2022-08-20T03:13:30;14.05;;;9.52;;
7729;SDS011;3908;52.310;7.230;2022-08-20T03:16:17;14.55;;;9.27;;
7729;SDS011;3908;52.310;7.230;2022-08-20T03:19:04;11.25;;;9.07;;
7729;SDS011;3908;52.310;7.230;2022-08-20T03:21:52;15.75;;;11.35;;
7729;SDS011;3908;52.310;7.230;2022-08-20T03:24:42;21.48;;;13.02;;
7729;SDS011;3908;52.310;7.230;2022-08-20T03:27:29;15.90;;;11.55;;
7729;SDS011;3908;52.310;7.230;2022-08-20T03:30:17;15.02;;;10.82;;
7729;SDS011;3908;52.310;7.230;2022-08-20T03:33:05;18.48;;;13.48;;
7729;SDS011;3908;52.310;7.230;2022-08-20T03:35:53;19.90;;;13.73;;
7729;SDS011;3908;52.310;7.230;2022-08-20T03:38:40;16.17;;;12.52;;
7729;SDS011;3908;52.310;7.230;2022-08-20T03:41:29;22.30;;;14.70;;
7729;SDS011;3908;52.310;7.230;2022-08-20T03:44:16;19.05;;;12.30;;
7729;SDS011;3908;52.310;7.230;2022-08-20T03:47:04;20.92;;;13.18;;
7729;SDS011;3908;52.310;7.230;2022-08-20T03:49:56;21.70;;;13.02;;
7729;SDS011;3908;52.310;7.230;2022-08-20T03:52:46;23.65;;;15.50;;
7729;SDS011;3908;52.310;7.230;2022-08-20T03:55:33;20.65;;;14.80;;
7729;SDS011;3908;52.310;7.230;2022-08-20T03:58:25;20.33;;;14.20;;
7729;SDS011;3908;52.310;7.230;2022-08-20T04:01:13;19.90;;;14.30;;
7729;SDS011;3908;52.310;7.230;2022-08-20T04:04:03;22.02;;;14.15;;
7729;SDS011;3908;52.310;7.230;2022-08-20T04:06:50;22.30;;;15.45;;
7729;SDS011;3908;52.310;7.230;2022-08-20T04:09:38;24.93;;;16.83;;
7729;SDS011;3908;52.310;7.230;2022-08-20T04:12:25;27.08;;;15.82;;
7729;SDS011;3908;52.310;7.230;2022-08-20T04:15:14;20.98;;;13.38;;
7729;SDS011;3908;52.310;7.230;2022-08-20T04:18:04;20.10;;;14.18;;
7729;SDS011;3908;52.310;7.230;2022-08-20T04:20:53;18.77;;;14.40;;
7729;SDS011;3908;52.310;7.230;2022-08-20T04:23:40;23.80;;;14.40;;
7729;SDS011;3908;52.310;7.230;2022-08-20T04:26:27;17.58;;;12.45;;
7729;SDS011;3908;52.310;7.230;2022-08-20T04:29:15;24.67;;;14.90;;
7729;SDS011;3908;52.310;7.230;2022-08-20T04:32:04;19.42;;;13.15;;
7729;SDS011;3908;52.310;7.230;2022-08-20T04:34:52;21.90;;;13.87;;
7729;SDS011;3908;52.310;7.230;2022-08-20T04:37:39;21.40;;;15.38;;
7729;SDS011;3908;52.310;7.230;2022-08-20T04:40:27;14.93;;;10.95;;
7729;SDS011;3908;52.310;7.230;2022-08-20T04:43:34;21.73;;;13.93;;
7729;SDS011;3908;52.310;7.230;2022-08-20T04:46:23;19.20;;;12.80;;
7729;SDS011;3908;52.310;7.230;2022-08-20T04:49:14;19.95;;;14.38;;
7729;SDS011;3908;52.310;7.230;2022-08-20T04:52:04;21.67;;;14.57;;
7729;SDS011;3908;52.310;7.230;2022-08-20T04:54:51;23.60;;;14.70;;
7729;SDS011;3908;52.310;7.230;2022-08-20T04:57:40;20.63;;;14.23;;
7729;SDS011;3908;52.310;7.230;2022-08-20T05:00:28;22.70;;;14.55;;
7729;SDS011;3908;52.310;7.230;2022-08-20T05:03:16;25.52;;;15.48;;
7729;SDS011;3908;52.310;7.230;2022-08-20T05:06:05;23.33;;;14.80;;
7729;SDS011;3908;52.310;7.230;2022-08-20T05:08:54;22.80;;;15.70;;
7729;SDS011;3908;52.310;7.230;2022-08-20T05:11:42;23.20;;;15.23;;
7729;SDS011;3908;52.310;7.230;2022-08-20T05:14:29;24.58;;;16.13;;
7729;SDS011;3908;52.310;7.230;2022-08-20T05:17:18;22.75;;;14.52;;
7729;SDS011;3908;52.310;7.230;2022-08-20T05:20:09;21.73;;;15.40;;
7729;SDS011;3908;52.310;7.230;2022-08-20T05:23:02;20.67;;;14.93;;
7729;SDS011;3908;52.310;7.230;2022-08-20T05:25:49;24.60;;;15.87;;
7729;SDS011;3908;52.310;7.230;2022-08-20T05:28:38;23.20;;;16.45;;
7729;SDS011;3908;52.310;7.230;2022-08-20T05:31:26;29.33;;;16.50;;
7729;SDS011;3908;52.310;7.230;2022-08-20T05:34:13;26.83;;;16.73;;
7729;SDS011;3908;52.310;7.230;2022-08-20T05:37:00;29.50;;;16.77;;
7729;SDS011;3908;52.310;7.230;2022-08-20T05:39:50;27.60;;;16.90;;
7729;SDS011;3908;52.310;7.230;2022-08-20T05:42:37;24.50;;;16.00;;
7729;SDS011;3908;52.310;7.230;2022-08-20T05:45:24;24.80;;;16.30;;
7729;SDS011;3908;52.310;7.230;2022-08-20T05:48:12;24.20;;;15.13;;
7729;SDS011;3908;52.310;7.230;2022-08-20T05:51:00;25.27;;;15.97;;
7729;SDS011;3908;52.310;7.230;2022-08-20T05:53:47;27.03;;;16.47;;
7729;SDS011;3908;52.310;7.230;2022-08-20T05:56:36;27.03;;;15.80;;
7729;SDS011;3908;52.310;7.230;2022-08-20T05:59:24;25.53;;;15.10;;
7729;SDS011;3908;52.310;7.230;2022-08-20T06:02:11;24.17;;;14.47;;
7729;SDS011;3908;52.310;7.230;2022-08-20T06:05:12;27.23;;;14.10;;
7729;SDS011;3908;52.310;7.230;2022-08-20T06:07:59;21.57;;;14.47;;
7729;SDS011;3908;52.310;7.230;2022-08-20T06:10:46;25.67;;;14.10;;
7729;SDS011;3908;52.310;7.230;2022-08-20T06:13:36;21.10;;;14.23;;
7729;SDS011;3908;52.310;7.230;2022-08-20T06:16:23;19.57;;;13.63;;
7729;SDS011;3908;52.310;7.230;2022-08-20T06:19:10;22.17;;;13.77;;
7729;SDS011;3908;52.310;7.230;2022-08-20T06:21:57;19.27;;;12.30;;
7729;SDS011;3908;52.310;7.230;2022-08-20T06:24:45;22.93;;;12.33;;
7729;SDS011;3908;52.310;7.230;2022-08-20T06:27:32;17.90;;;11.30;;
7729;SDS011;3908;52.310;7.230;2022-08-20T06:30:23;20.33;;;10.47;;
7729;SDS011;3908;52.310;7.230;2022-08-20T06:33:10;19.43;;;10.30;;
7729;SDS011;3908;52.310;7.230;2022-08-20T06:35:57;16.77;;;8.93;;
7729;SDS011;3908;52.310;7.230;2022-08-20T06:38:45;15.50;;;9.30;;
7729;SDS011;3908;52.310;7.230;2022-08-20T06:41:32;17.08;;;9.20;;
7729;SDS011;3908;52.310;7.230;2022-08-20T06:44:20;15.37;;;8.27;;
7729;SDS011;3908;52.310;7.230;2022-08-20T06:47:09;15.63;;;9.32;;
7729;SDS011;3908;52.310;7.230;2022-08-20T06:49:58;14.57;;;8.60;;
7729;SDS011;3908;52.310;7.230;2022-08-20T06:52:45;14.02;;;7.55;;
7729;SDS011;3908;52.310;7.230;2022-08-20T06:55:35;13.50;;;7.65;;
7729;SDS011;3908;52.310;7.230;2022-08-20T06:58:23;14.38;;;7.40;;
7729;SDS011;3908;52.310;7.230;2022-08-20T07:01:11;13.20;;;6.93;;
7729;SDS011;3908;52.310;7.230;2022-08-20T07:04:00;16.45;;;7.30;;
7729;SDS011;3908;52.310;7.230;2022-08-20T07:06:47;12.23;;;7.00;;
7729;SDS011;3908;52.310;7.230;2022-08-20T07:09:36;10.57;;;6.18;;
7729;SDS011;3908;52.310;7.230;2022-08-20T07:12:23;18.17;;;6.72;;
7729;SDS011;3908;52.310;7.230;2022-08-20T07:15:11;13.90;;;5.95;;
7729;SDS011;3908;52.310;7.230;2022-08-20T07:18:00;11.60;;;6.05;;
7729;SDS011;3908;52.310;7.230;2022-08-20T07:20:51;7.80;;;5.57;;
7729;SDS011;3908;52.310;7.230;2022-08-20T07:23:41;13.65;;;5.65;;
7729;SDS011;3908;52.310;7.230;2022-08-20T07:26:28;13.15;;;6.90;;
7729;SDS011;3908;52.310;7.230;2022-08-20T07:29:15;15.38;;;6.70;;
7729;SDS011;3908;52.310;7.230;2022-08-20T07:32:02;12.57;;;6.13;;
7729;SDS011;3908;52.310;7.230;2022-08-20T07:35:08;11.35;;;5.97;;
7729;SDS011;3908;52.310;7.230;2022-08-20T07:37:58;9.77;;;5.22;;
7729;SDS011;3908;52.310;7.230;2022-08-20T07:40:45;14.07;;;5.72;;
7729;SDS011;3908;52.310;7.230;2022-08-20T07:43:34;12.63;;;4.65;;
7729;SDS011;3908;52.310;7.230;2022-08-20T07:46:23;8.82;;;5.10;;
7729;SDS011;3908;52.310;7.230;2022-08-20T07:49:11;11.50;;;5.40;;
7729;SDS011;3908;52.310;7.230;2022-08-20T07:51:58;17.10;;;5.18;;
7729;SDS011;3908;52.310;7.230;2022-08-20T07:54:48;10.15;;;4.90;;
7729;SDS011;3908;52.310;7.230;2022-08-20T07:57:36;11.70;;;4.70;;
7729;SDS011;3908;52.310;7.230;2022-08-20T08:00:24;8.25;;;4.43;;
7729;SDS011;3908;52.310;7.230;2022-08-20T08:03:12;9.23;;;4.05;;
7729;SDS011;3908;52.310;7.230;2022-08-20T08:05:59;13.25;;;4.28;;
7729;SDS011;3908;52.310;7.230;2022-08-20T08:08:46;10.85;;;4.35;;
7729;SDS011;3908;52.310;7.230;2022-08-20T08:11:35;10.77;;;4.07;;
7729;SDS011;3908;52.310;7.230;2022-08-20T08:14:25;9.95;;;4.25;;
7729;SDS011;3908;52.310;7.230;2022-08-20T08:17:16;17.80;;;4.25;;
7729;SDS011;3908;52.310;7.230;2022-08-20T08:20:06;12.85;;;4.05;;
7729;SDS011;3908;52.310;7.230;2022-08-20T08:22:54;14.70;;;4.72;;
7729;SDS011;3908;52.310;7.230;2022-08-20T08:25:43;7.68;;;3.97;;
7729;SDS011;3908;52.310;7.230;2022-08-20T08:28:31;6.07;;;3.88;;
7729;SDS011;3908;52.310;7.230;2022-08-20T08:31:18;9.50;;;3.40;;
7729;SDS011;3908;52.310;7.230;2022-08-20T08:34:13;9.02;;;3.25;;
7729;SDS011;3908;52.310;7.230;2022-08-20T08:37:00;11.15;;;3.72;;
7729;SDS011;3908;52.310;7.230;2022-08-20T08:39:48;10.30;;;3.38;;
7729;SDS011;3908;52.310;7.230;2022-08-20T08:42:37;9.20;;;3.47;;
7729;SDS011;3908;52.310;7.230;2022-08-20T08:45:33;8.60;;;3.17;;
7729;SDS011;3908;52.310;7.230;2022-08-20T08:48:32;10.38;;;3.20;;
7729;SDS011;3908;52.310;7.230;2022-08-20T08:51:25;14.02;;;3.50;;
7729;SDS011;3908;52.310;7.230;2022-08-20T08:54:19;7.13;;;2.70;;
7729;SDS011;3908;52.310;7.230;2022-08-20T08:57:09;12.23;;;2.88;;
7729;SDS011;3908;52.310;7.230;2022-08-20T08:59:58;10.25;;;2.95;;
7729;SDS011;3908;52.310;7.230;2022-08-20T09:02:56;5.60;;;2.40;;
7729;SDS011;3908;52.310;7.230;2022-08-20T09:05:47;12.18;;;2.55;;
7729;SDS011;3908;52.310;7.230;2022-08-20T09:08:41;11.82;;;3.28;;
7729;SDS011;3908;52.310;7.230;2022-08-20T09:11:37;6.05;;;2.83;;
7729;SDS011;3908;52.310;7.230;2022-08-20T09:14:31;7.75;;;3.30;;
7729;SDS011;3908;52.310;7.230;2022-08-20T09:17:19;9.95;;;3.13;;
7729;SDS011;3908;52.310;7.230;2022-08-20T09:20:13;10.02;;;3.35;;
7729;SDS011;3908;52.310;7.230;2022-08-20T09:23:00;9.65;;;3.03;;
7729;SDS011;3908;52.310;7.230;2022-08-20T09:25:51;12.48;;;3.47;;
7729;SDS011;3908;52.310;7.230;2022-08-20T09:28:38;9.68;;;3.97;;
7729;SDS011;3908;52.310;7.230;2022-08-20T09:31:25;7.18;;;3.00;;
7729;SDS011;3908;52.310;7.230;2022-08-20T09:34:12;9.13;;;2.80;;
7729;SDS011;3908;52.310;7.230;2022-08-20T09:37:02;7.15;;;3.03;;
7729;SDS011;3908;52.310;7.230;2022-08-20T09:39:49;11.57;;;3.38;;
7729;SDS011;3908;52.310;7.230;2022-08-20T09:42:38;8.30;;;3.00;;
7729;SDS011;3908;52.310;7.230;2022-08-20T09:45:27;11.90;;;3.55;;
7729;SDS011;3908;52.310;7.230;2022-08-20T09:48:14;12.38;;;2.90;;
7729;SDS011;3908;52.310;7.230;2022-08-20T09:51:01;7.45;;;2.70;;
7729;SDS011;3908;52.310;7.230;2022-08-20T09:53:50;11.52;;;2.90;;
7729;SDS011;3908;52.310;7.230;2022-08-20T09:56:37;19.38;;;3.97;;
7729;SDS011;3908;52.310;7.230;2022-08-20T09:59:24;7.80;;;2.70;;
7729;SDS011;3908;52.310;7.230;2022-08-20T10:02:11;9.73;;;2.40;;
7729;SDS011;3908;52.310;7.230;2022-08-20T10:04:58;10.07;;;2.58;;
7729;SDS011;3908;52.310;7.230;2022-08-20T10:07:45;10.25;;;2.55;;
7729;SDS011;3908;52.310;7.230;2022-08-20T10:10:34;11.30;;;2.72;;
7729;SDS011;3908;52.310;7.230;2022-08-20T10:13:21;9.82;;;2.47;;
7729;SDS011;3908;52.310;7.230;2022-08-20T10:16:08;6.97;;;2.60;;
7729;SDS011;3908;52.310;7.230;2022-08-20T10:18:55;5.18;;;2.20;;
7729;SDS011;3908;52.310;7.230;2022-08-20T10:21:42;7.88;;;2.10;;
7729;SDS011;3908;52.310;7.230;2022-08-20T10:24:29;5.18;;;2.00;;
7729;SDS011;3908;52.310;7.230;2022-08-20T10:27:18;6.60;;;1.83;;
7729;SDS011;3908;52.310;7.230;2022-08-20T10:30:05;5.68;;;2.22;;
7729;SDS011;3908;52.310;7.230;2022-08-20T10:32:53;8.35;;;2.65;;
7729;SDS011;3908;52.310;7.230;2022-08-20T10:35:41;10.68;;;2.35;;
7729;SDS011;3908;52.310;7.230;2022-08-20T10:38:28;8.32;;;2.42;;
7729;SDS011;3908;52.310;7.230;2022-08-20T10:41:15;10.70;;;3.00;;
7729;SDS011;3908;52.310;7.230;2022-08-20T10:44:03;8.80;;;2.67;;
7729;SDS011;3908;52.310;7.230;2022-08-20T10:46:52;9.15;;;2.08;;
7729;SDS011;3908;52.310;7.230;2022-08-20T10:49:39;5.40;;;1.85;;
7729;SDS011;3908;52.310;7.230;2022-08-20T10:52:26;5.95;;;1.85;;
7729;SDS011;3908;52.310;7.230;2022-08-20T10:55:14;8.68;;;2.05;;
7729;SDS011;3908;52.310;7.230;2022-08-20T10:58:03;9.52;;;2.20;;
7729;SDS011;3908;52.310;7.230;2022-08-20T11:00:52;9.93;;;2.70;;
7729;SDS011;3908;52.310;7.230;2022-08-20T11:03:39;7.20;;;2.33;;
7729;SDS011;3908;52.310;7.230;2022-08-20T11:06:26;6.45;;;2.20;;
7729;SDS011;3908;52.310;7.230;2022-08-20T11:09:14;4.10;;;1.90;;
7729;SDS011;3908;52.310;7.230;2022-08-20T11:12:02;3.60;;;1.45;;
7729;SDS011;3908;52.310;7.230;2022-08-20T11:14:49;7.10;;;2.75;;
7729;SDS011;3908;52.310;7.230;2022-08-20T11:17:40;8.73;;;2.08;;
7729;SDS011;3908;52.310;7.230;2022-08-20T11:20:31;5.90;;;1.80;;
7729;SDS011;3908;52.310;7.230;2022-08-20T11:23:18;8.43;;;2.22;;
7729;SDS011;3908;52.310;7.230;2022-08-20T11:26:05;5.93;;;2.35;;
7729;SDS011;3908;52.310;7.230;2022-08-20T11:28:52;5.85;;;1.85;;
7729;SDS011;3908;52.310;7.230;2022-08-20T11:31:40;4.10;;;1.80;;
7729;SDS011;3908;52.310;7.230;2022-08-20T11:34:28;7.63;;;1.73;;
7729;SDS011;3908;52.310;7.230;2022-08-20T11:37:17;5.95;;;1.80;;
7729;SDS011;3908;52.310;7.230;2022-08-20T11:40:09;8.73;;;2.15;;
7729;SDS011;3908;52.310;7.230;2022-08-20T11:42:57;3.38;;;2.00;;
7729;SDS011;3908;52.310;7.230;2022-08-20T11:45:45;6.55;;;1.95;;
7729;SDS011;3908;52.310;7.230;2022-08-20T11:48:37;6.85;;;1.73;;
7729;SDS011;3908;52.310;7.230;2022-08-20T11:51:26;11.55;;;3.65;;
7729;SDS011;3908;52.310;7.230;2022-08-20T11:54:16;5.15;;;1.90;;
7729;SDS011;3908;52.310;7.230;2022-08-20T11:57:03;5.50;;;1.80;;
7729;SDS011;3908;52.310;7.230;2022-08-20T11:59:50;8.43;;;2.30;;
7729;SDS011;3908;52.310;7.230;2022-08-20T12:02:39;5.22;;;1.42;;
7729;SDS011;3908;52.310;7.230;2022-08-20T12:05:26;3.80;;;1.80;;
7729;SDS011;3908;52.310;7.230;2022-08-20T12:08:16;12.73;;;2.05;;
7729;SDS011;3908;52.310;7.230;2022-08-20T12:11:03;10.13;;;1.90;;
7729;SDS011;3908;52.310;7.230;2022-08-20T12:13:50;3.90;;;1.88;;
7729;SDS011;3908;52.310;7.230;2022-08-20T12:16:37;8.55;;;2.00;;
7729;SDS011;3908;52.310;7.230;2022-08-20T12:19:24;7.13;;;1.90;;
7729;SDS011;3908;52.310;7.230;2022-08-20T12:22:11;5.72;;;2.08;;
7729;SDS011;3908;52.310;7.230;2022-08-20T12:25:00;8.38;;;1.77;;
7729;SDS011;3908;52.310;7.230;2022-08-20T12:27:49;11.00;;;2.10;;
7729;SDS011;3908;52.310;7.230;2022-08-20T12:30:36;7.65;;;2.00;;
7729;SDS011;3908;52.310;7.230;2022-08-20T12:33:24;7.20;;;2.15;;
7729;SDS011;3908;52.310;7.230;2022-08-20T12:36:11;7.53;;;1.63;;
7729;SDS011;3908;52.310;7.230;2022-08-20T12:38:58;6.90;;;1.77;;
7729;SDS011;3908;52.310;7.230;2022-08-20T12:41:46;5.40;;;2.25;;
7729;SDS011;3908;52.310;7.230;2022-08-20T12:44:33;5.63;;;2.30;;
7729;SDS011;3908;52.310;7.230;2022-08-20T12:47:22;5.95;;;1.77;;
7729;SDS011;3908;52.310;7.230;2022-08-20T12:50:14;7.32;;;2.00;;
7729;SDS011;3908;52.310;7.230;2022-08-20T12:53:02;8.25;;;1.67;;
7729;SDS011;3908;52.310;7.230;2022-08-20T12:55:53;5.05;;;2.17;;
7729;SDS011;3908;52.310;7.230;2022-08-20T12:58:41;6.32;;;1.90;;
7729;SDS011;3908;52.310;7.230;2022-08-20T13:01:28;6.40;;;1.65;;
7729;SDS011;3908;52.310;7.230;2022-08-20T13:04:16;6.88;;;1.90;;
7729;SDS011;3908;52.310;7.230;2022-08-20T13:07:04;7.43;;;1.80;;
7729;SDS011;3908;52.310;7.230;2022-08-20T13:09:51;4.72;;;1.40;;
7729;SDS011;3908;52.310;7.230;2022-08-20T13:12:38;4.03;;;1.65;;
7729;SDS011;3908;52.310;7.230;2022-08-20T13:15:27;8.18;;;2.08;;
7729;SDS011;3908;52.310;7.230;2022-08-20T13:18:22;6.18;;;1.83;;
7729;SDS011;3908;52.310;7.230;2022-08-20T13:21:11;9.80;;;2.05;;
7729;SDS011;3908;52.310;7.230;2022-08-20T13:23:58;7.00;;;1.80;;
7729;SDS011;3908;52.310;7.230;2022-08-20T13:26:45;7.07;;;1.85;;
7729;SDS011;3908;52.310;7.230;2022-08-20T13:29:32;5.75;;;1.80;;
7729;SDS011;3908;52.310;7.230;2022-08-20T13:32:22;8.13;;;1.85;;
7729;SDS011;3908;52.310;7.230;2022-08-20T13:35:10;6.43;;;1.80;;
7729;SDS011;3908;52.310;7.230;2022-08-20T13:37:58;2.35;;;1.58;;
7729;SDS011;3908;52.310;7.230;2022-08-20T13:40:45;6.45;;;1.92;;
7729;SDS011;3908;52.310;7.230;2022-08-20T13:43:32;9.73;;;1.98;;
7729;SDS011;3908;52.310;7.230;2022-08-20T13:46:20;4.85;;;1.58;;
7729;SDS011;3908;52.310;7.230;2022-08-20T13:49:10;7.95;;;2.60;;
7729;SDS011;3908;52.310;7.230;2022-08-20T13:51:57;11.13;;;1.90;;
7729;SDS011;3908;52.310;7.230;2022-08-20T13:54:46;7.65;;;1.88;;
7729;SDS011;3908;52.310;7.230;2022-08-20T13:57:33;4.15;;;1.60;;
7729;SDS011;3908;52.310;7.230;2022-08-20T14:00:21;5.45;;;1.58;;
7729;SDS011;3908;52.310;7.230;2022-08-20T14:03:10;6.07;;;1.60;;
7729;SDS011;3908;52.310;7.230;2022-08-20T14:06:00;5.70;;;1.85;;
7729;SDS011;3908;52.310;7.230;2022-08-20T14:08:47;5.45;;;1.58;;
7729;SDS011;3908;52.310;7.230;2022-08-20T14:11:35;3.95;;;1.60;;
7729;SDS011;3908;52.310;7.230;2022-08-20T14:14:23;4.65;;;1.52;;
7729;SDS011;3908;52.310;7.230;2022-08-20T14:17:17;6.47;;;1.77;;
7729;SDS011;3908;52.310;7.230;2022-08-20T14:20:10;6.50;;;1.73;;
7729;SDS011;3908;52.310;7.230;2022-08-20T14:23:01;10.40;;;1.63;;
7729;SDS011;3908;52.310;7.230;2022-08-20T14:25:51;5.60;;;1.60;;
7729;SDS011;3908;52.310;7.230;2022-08-20T14:28:39;5.18;;;1.70;;
7729;SDS011;3908;52.310;7.230;2022-08-20T14:31:26;5.35;;;2.08;;
7729;SDS011;3908;52.310;7.230;2022-08-20T14:34:13;6.65;;;1.48;;
7729;SDS011;3908;52.310;7.230;2022-08-20T14:37:10;5.15;;;1.77;;
7729;SDS011;3908;52.310;7.230;2022-08-20T14:40:00;4.80;;;1.58;;
7729;SDS011;3908;52.310;7.230;2022-08-20T14:42:53;6.75;;;2.05;;
7729;SDS011;3908;52.310;7.230;2022-08-20T14:45:41;3.40;;;1.30;;
7729;SDS011;3908;52.310;7.230;2022-08-20T14:48:29;6.13;;;1.70;;
7729;SDS011;3908;52.310;7.230;2022-08-20T14:51:17;6.05;;;2.00;;
7729;SDS011;3908;52.310;7.230;2022-08-20T14:54:04;4.22;;;1.65;;
7729;SDS011;3908;52.310;7.230;2022-08-20T14:56:53;5.60;;;1.80;;
7729;SDS011;3908;52.310;7.230;2022-08-20T14:59:43;7.03;;;1.80;;
7729;SDS011;3908;52.310;7.230;2022-08-20T15:02:33;5.13;;;1.75;;
7729;SDS011;3908;52.310;7.230;2022-08-20T15:05:21;8.23;;;1.73;;
7729;SDS011;3908;52.310;7.230;2022-08-20T15:08:08;4.95;;;1.80;;
7729;SDS011;3908;52.310;7.230;2022-08-20T15:10:55;2.65;;;1.60;;
7729;SDS011;3908;52.310;7.230;2022-08-20T15:13:44;3.83;;;1.20;;
7729;SDS011;3908;52.310;7.230;2022-08-20T15:16:31;4.97;;;1.42;;
7729;SDS011;3908;52.310;7.230;2022-08-20T15:19:18;2.22;;;1.40;;
7729;SDS011;3908;52.310;7.230;2022-08-20T15:22:06;7.25;;;1.40;;
7729;SDS011;3908;52.310;7.230;2022-08-20T15:24:53;8.77;;;2.35;;
7729;SDS011;3908;52.310;7.230;2022-08-20T15:27:43;5.97;;;1.55;;
7729;SDS011;3908;52.310;7.230;2022-08-20T15:30:33;4.80;;;1.52;;
7729;SDS011;3908;52.310;7.230;2022-08-20T15:33:21;4.20;;;1.40;;
7729;SDS011;3908;52.310;7.230;2022-08-20T15:36:09;7.28;;;1.90;;
7729;SDS011;3908;52.310;7.230;2022-08-20T15:38:57;7.25;;;1.48;;
7729;SDS011;3908;52.310;7.230;2022-08-20T15:41:44;5.22;;;1.27;;
7729;SDS011;3908;52.310;7.230;2022-08-20T15:44:31;4.47;;;1.48;;
7729;SDS011;3908;52.310;7.230;2022-08-20T15:47:21;4.35;;;1.60;;
7729;SDS011;3908;52.310;7.230;2022-08-20T15:50:12;9.38;;;1.98;;
7729;SDS011;3908;52.310;7.230;2022-08-20T15:53:04;6.03;;;1.42;;
7729;SDS011;3908;52.310;7.230;2022-08-20T15:55:57;3.60;;;1.52;;
7729;SDS011;3908;52.310;7.230;2022-08-20T15:58:52;3.33;;;1.33;;
7729;SDS011;3908;52.310;7.230;2022-08-20T16:01:50;4.25;;;1.30;;
7729;SDS011;3908;52.310;7.230;2022-08-20T16:08:06;5.10;;;1.38;;
7729;SDS011;3908;52.310;7.230;2022-08-20T16:11:04;4.10;;;1.50;;
7729;SDS011;3908;52.310;7.230;2022-08-20T16:14:06;3.75;;;1.63;;
7729;SDS011;3908;52.310;7.230;2022-08-20T16:17:02;6.75;;;1.50;;
7729;SDS011;3908;52.310;7.230;2022-08-20T16:19:55;5.93;;;1.75;;
7729;SDS011;3908;52.310;7.230;2022-08-20T16:22:49;4.25;;;1.35;;
7729;SDS011;3908;52.310;7.230;2022-08-20T16:25:42;4.15;;;1.50;;
7729;SDS011;3908;52.310;7.230;2022-08-20T16:28:42;5.03;;;1.67;;
7729;SDS011;3908;52.310;7.230;2022-08-20T16:31:36;5.97;;;1.60;;
7729;SDS011;3908;52.310;7.230;2022-08-20T16:34:30;6.70;;;1.48;;
7729;SDS011;3908;52.310;7.230;2022-08-20T16:37:21;3.80;;;1.65;;
7729;SDS011;3908;52.310;7.230;2022-08-20T16:40:14;4.28;;;1.67;;
7729;SDS011;3908;52.310;7.230;2022-08-20T16:43:07;3.63;;;1.65;;
7729;SDS011;3908;52.310;7.230;2022-08-20T16:46:04;4.50;;;1.50;;
7729;SDS011;3908;52.310;7.230;2022-08-20T16:48:58;4.85;;;1.98;;
7729;SDS011;3908;52.310;7.230;2022-08-20T16:51:55;5.28;;;1.85;;
7729;SDS011;3908;52.310;7.230;2022-08-20T16:54:44;2.67;;;1.50;;
7729;SDS011;3908;52.310;7.230;2022-08-20T16:57:33;5.38;;;1.70;;
7729;SDS011;3908;52.310;7.230;2022-08-20T17:00:23;4.60;;;1.50;;
7729;SDS011;3908;52.310;7.230;2022-08-20T17:03:25;7.38;;;2.03;;
7729;SDS011;3908;52.310;7.230;2022-08-20T17:06:14;3.22;;;1.52;;
7729;SDS011;3908;52.310;7.230;2022-08-20T17:09:10;6.50;;;2.00;;
7729;SDS011;3908;52.310;7.230;2022-08-20T17:12:12;7.47;;;1.80;;
7729;SDS011;3908;52.310;7.230;2022-08-20T17:15:03;4.22;;;1.77;;
7729;SDS011;3908;52.310;7.230;2022-08-20T17:17:51;4.05;;;1.70;;
7729;SDS011;3908;52.310;7.230;2022-08-20T17:20:41;4.68;;;1.85;;
7729;SDS011;3908;52.310;7.230;2022-08-20T17:23:32;5.32;;;1.48;;